createdAt,value
2018-12-08T00:02:15.510Z,17.97
2018-12-08T00:04:43.376Z,15.87
2018-12-08T00:07:11.858Z,20.70
2018-12-08T00:09:40.284Z,21.10
2018-12-08T00:12:09.416Z,17.93
2018-12-08T00:14:37.264Z,19.77
2018-12-08T00:17:06.491Z,17.77
2018-12-08T00:19:34.351Z,19.80
2018-12-08T00:22:02.785Z,21.90
2018-12-08T00:24:31.142Z,18.97
2018-12-08T00:26:58.992Z,20.80
2018-12-08T00:29:28.795Z,23.90
2018-12-08T00:31:56.675Z,23.47
2018-12-08T00:34:27.319Z,17.87
2018-12-08T00:36:55.828Z,20.87
2018-12-08T00:39:23.681Z,24.17
2018-12-08T00:41:52.513Z,18.87
2018-12-08T00:44:20.328Z,14.67
2018-12-08T00:46:49.072Z,15.40
2018-12-08T00:49:17.433Z,23.10
2018-12-08T00:51:45.266Z,18.83
2018-12-08T00:54:13.068Z,23.07
2018-12-08T00:56:40.883Z,23.57
2018-12-08T00:59:08.694Z,20.43
2018-12-08T01:01:36.553Z,15.47
2018-12-08T01:04:04.642Z,20.43
2018-12-08T01:06:32.432Z,26.97
2018-12-08T01:09:00.240Z,18.17
2018-12-08T01:11:28.674Z,19.90
2018-12-08T01:13:56.472Z,19.20
2018-12-08T01:16:24.259Z,18.77
2018-12-08T01:18:52.199Z,24.07
2018-12-08T01:21:19.997Z,18.43
2018-12-08T01:23:47.788Z,20.97
2018-12-08T01:26:15.624Z,17.83
2018-12-08T01:28:43.557Z,22.07
2018-12-08T01:31:11.402Z,22.80
2018-12-08T01:33:39.273Z,14.77
2018-12-08T01:36:07.200Z,21.07
2018-12-08T01:38:35.020Z,20.80
2018-12-08T01:41:02.830Z,25.40
2018-12-08T01:43:30.648Z,23.03
2018-12-08T01:45:58.460Z,18.07
2018-12-08T01:48:27.492Z,23.43
2018-12-08T01:50:55.312Z,20.27
2018-12-08T01:53:23.101Z,19.13
2018-12-08T01:55:50.949Z,19.53
2018-12-08T01:58:18.744Z,26.20
2018-12-08T02:00:46.573Z,21.87
2018-12-08T02:03:14.389Z,21.10
2018-12-08T02:05:42.239Z,22.20
2018-12-08T02:08:10.048Z,22.63
2018-12-08T02:10:39.107Z,25.33
2018-12-08T02:13:06.921Z,17.57
2018-12-08T02:15:34.727Z,25.30
2018-12-08T02:18:02.574Z,22.40
2018-12-08T02:20:30.461Z,24.00
2018-12-08T02:22:58.274Z,23.23
2018-12-08T02:25:26.093Z,23.17
2018-12-08T02:27:53.887Z,23.63
2018-12-08T02:30:21.693Z,26.50
2018-12-08T02:32:49.556Z,26.63
2018-12-08T02:35:17.368Z,18.07
2018-12-08T02:37:45.226Z,20.20
2018-12-08T02:40:13.084Z,22.27
2018-12-08T02:42:41.066Z,21.90
2018-12-08T02:45:08.881Z,18.77
2018-12-08T02:47:36.720Z,24.70
2018-12-08T02:50:05.335Z,19.23
2018-12-08T02:52:33.159Z,23.47
2018-12-08T02:55:00.997Z,23.23
2018-12-08T02:57:28.788Z,18.63
2018-12-08T02:59:56.595Z,17.23
2018-12-08T03:02:24.537Z,18.50
2018-12-08T03:04:52.597Z,19.27
2018-12-08T03:07:20.417Z,19.03
2018-12-08T03:09:48.272Z,16.50
2018-12-08T03:12:16.088Z,17.70
2018-12-08T03:14:43.886Z,19.00
2018-12-08T03:17:11.710Z,20.77
2018-12-08T03:19:39.506Z,20.20
2018-12-08T03:22:07.307Z,21.90
2018-12-08T03:24:35.104Z,18.23
2018-12-08T03:27:02.919Z,18.77
2018-12-08T03:29:30.852Z,21.67
2018-12-08T03:31:58.666Z,20.07
2018-12-08T03:34:28.416Z,17.93
2018-12-08T03:36:56.210Z,18.23
2018-12-08T03:39:25.153Z,22.47
2018-12-08T03:41:53.379Z,21.47
2018-12-08T03:44:21.187Z,25.20
2018-12-08T03:46:49.000Z,19.43
2018-12-08T03:49:16.806Z,19.50
2018-12-08T03:51:44.677Z,16.87
2018-12-08T03:54:12.492Z,17.07
2018-12-08T03:56:40.282Z,18.33
2018-12-08T03:59:08.065Z,18.97
2018-12-08T04:01:35.894Z,22.17
2018-12-08T04:04:03.688Z,18.57
2018-12-08T04:06:31.470Z,18.20
2018-12-08T04:08:59.293Z,20.90
2018-12-08T04:11:27.111Z,22.93
2018-12-08T04:13:54.975Z,18.17
2018-12-08T04:16:24.147Z,21.07
2018-12-08T04:18:52.952Z,16.77
2018-12-08T04:21:20.767Z,21.53
2018-12-08T04:23:48.587Z,21.33
2018-12-08T04:26:16.390Z,18.80
2018-12-08T04:28:44.190Z,21.73
2018-12-08T04:31:12.022Z,23.97
2018-12-08T04:33:39.808Z,21.10
2018-12-08T04:36:07.596Z,19.27
2018-12-08T04:38:35.419Z,21.37
2018-12-08T04:41:03.237Z,20.67
2018-12-08T04:43:31.189Z,26.43
2018-12-08T04:45:59.056Z,19.20
2018-12-08T04:48:26.863Z,24.33
2018-12-08T04:50:54.645Z,20.57
2018-12-08T04:53:22.560Z,25.07
2018-12-08T04:55:50.339Z,23.67
2018-12-08T04:58:18.128Z,22.60
2018-12-08T05:00:45.951Z,21.63
2018-12-08T05:03:13.774Z,21.77
2018-12-08T05:05:41.570Z,26.37
2018-12-08T05:08:09.390Z,19.50
2018-12-08T05:10:37.190Z,21.50
2018-12-08T05:13:04.987Z,23.93
2018-12-08T05:15:32.824Z,19.50
2018-12-08T05:18:00.671Z,24.90
2018-12-08T05:20:28.460Z,19.70
2018-12-08T05:22:56.948Z,21.77
2018-12-08T05:25:24.855Z,25.30
2018-12-08T05:27:52.646Z,22.83
2018-12-08T05:30:20.465Z,21.80
2018-12-08T05:32:48.277Z,24.90
2018-12-08T05:35:17.328Z,23.13
2018-12-08T05:37:45.123Z,24.73
2018-12-08T05:40:13.055Z,26.63
2018-12-08T05:42:40.848Z,27.57
2018-12-08T05:45:09.060Z,19.67
2018-12-08T05:47:36.885Z,23.37
2018-12-08T05:50:06.469Z,22.70
2018-12-08T05:52:34.682Z,26.93
2018-12-08T05:55:03.775Z,26.73
2018-12-08T05:57:32.830Z,21.97
2018-12-08T06:00:00.658Z,25.87
2018-12-08T06:02:28.456Z,26.60
2018-12-08T06:04:56.282Z,20.67
2018-12-08T06:07:24.116Z,27.30
2018-12-08T06:09:51.896Z,29.60
2018-12-08T06:12:19.692Z,20.40
2018-12-08T06:14:47.505Z,27.63
2018-12-08T06:17:16.239Z,27.20
2018-12-08T06:19:44.716Z,22.03
2018-12-08T06:22:12.612Z,25.90
2018-12-08T06:24:41.544Z,25.93
2018-12-08T06:27:24.165Z,25.07
2018-12-08T06:29:52.056Z,19.77
2018-12-08T06:32:19.934Z,23.37
2018-12-08T06:34:47.782Z,26.03
2018-12-08T06:37:15.731Z,24.10
2018-12-08T06:39:43.519Z,25.73
2018-12-08T06:42:11.357Z,25.37
2018-12-08T06:44:39.159Z,26.90
2018-12-08T06:47:07.108Z,30.03
2018-12-08T06:49:34.933Z,26.13
2018-12-08T06:52:02.760Z,28.47
2018-12-08T06:54:30.612Z,24.90
2018-12-08T06:56:58.451Z,25.97
2018-12-08T06:59:26.248Z,33.93
2018-12-08T07:01:54.246Z,29.87
2018-12-08T07:04:22.072Z,26.70
2018-12-08T07:06:49.895Z,28.97
2018-12-08T07:09:17.679Z,30.10
2018-12-08T07:11:45.587Z,31.27
2018-12-08T07:14:13.404Z,30.70
2018-12-08T07:16:41.640Z,27.77
2018-12-08T07:19:09.462Z,31.60
2018-12-08T07:21:37.253Z,33.97
2018-12-08T07:24:05.224Z,28.37
2018-12-08T07:26:33.144Z,27.47
2018-12-08T07:29:00.950Z,25.90
2018-12-08T07:31:28.896Z,24.93
2018-12-08T07:33:56.739Z,30.87
2018-12-08T07:36:24.754Z,29.33
2018-12-08T07:38:52.868Z,24.87
2018-12-08T07:41:21.585Z,28.50
2018-12-08T07:43:49.432Z,27.47
2018-12-08T07:46:19.447Z,26.37
2018-12-08T07:48:47.301Z,24.83
2018-12-08T07:51:17.946Z,29.17
2018-12-08T07:53:45.908Z,28.30
2018-12-08T07:56:19.843Z,29.60
2018-12-08T07:58:48.645Z,28.50
2018-12-08T08:01:16.486Z,28.83
2018-12-08T08:03:44.765Z,26.47
2018-12-08T08:06:12.642Z,25.17
2018-12-08T08:08:40.788Z,22.27
2018-12-08T08:11:08.700Z,32.90
2018-12-08T08:13:36.640Z,23.73
2018-12-08T08:16:04.577Z,24.80
2018-12-08T08:18:33.639Z,24.83
2018-12-08T08:21:01.540Z,28.73
2018-12-08T08:23:30.506Z,29.13
2018-12-08T08:25:58.411Z,31.03
2018-12-08T08:28:26.915Z,28.53
2018-12-08T08:30:55.500Z,25.83
2018-12-08T08:33:24.299Z,25.13
2018-12-08T08:35:54.404Z,25.40
2018-12-08T08:38:23.375Z,29.60
2018-12-08T08:40:52.212Z,25.47
2018-12-08T08:43:21.896Z,22.20
2018-12-08T08:45:50.508Z,26.90
2018-12-08T08:48:18.376Z,22.10
2018-12-08T08:53:33.213Z,23.10
2018-12-08T08:56:02.602Z,23.90
2018-12-08T08:58:31.883Z,27.93
2018-12-08T09:01:01.596Z,26.93
2018-12-08T09:03:31.199Z,25.57
2018-12-08T09:05:59.430Z,26.33
2018-12-08T09:08:29.049Z,23.20
2018-12-08T09:10:56.863Z,26.10
2018-12-08T09:13:24.684Z,29.63
2018-12-08T09:15:52.548Z,27.70
2018-12-08T09:18:21.460Z,24.53
2018-12-08T09:20:50.256Z,27.17
2018-12-08T09:23:21.693Z,30.70
2018-12-08T09:25:57.457Z,28.20
2018-12-08T09:28:28.779Z,27.87
2018-12-08T09:30:57.669Z,27.90
2018-12-08T09:33:30.060Z,25.33
2018-12-08T09:37:03.667Z,24.20
2018-12-08T09:39:33.638Z,24.00
2018-12-08T09:42:01.532Z,23.87
2018-12-08T09:44:30.127Z,28.33
2018-12-08T09:47:00.203Z,25.93
2018-12-08T09:49:30.101Z,23.30
2018-12-08T09:51:58.489Z,20.53
2018-12-08T09:54:27.242Z,23.20
2018-12-08T09:56:55.085Z,28.07
2018-12-08T09:59:22.947Z,20.20
2018-12-08T10:01:54.209Z,30.63
2018-12-08T10:04:23.076Z,24.07
2018-12-08T10:06:50.924Z,27.10
2018-12-08T10:09:19.045Z,21.97
2018-12-08T10:11:49.238Z,24.40
2018-12-08T10:14:18.578Z,23.07
2018-12-08T10:16:49.552Z,19.80
2018-12-08T10:19:17.428Z,30.00
2018-12-08T10:21:52.314Z,23.53
2018-12-08T10:24:20.961Z,24.97
2018-12-08T10:26:51.813Z,23.17
2018-12-08T10:29:21.646Z,22.33
2018-12-08T10:31:51.868Z,30.23
2018-12-08T10:34:19.906Z,27.63
2018-12-08T10:36:53.077Z,22.93
2018-12-08T10:39:21.959Z,21.53
2018-12-08T10:41:52.877Z,26.07
2018-12-08T10:44:21.715Z,26.70
2018-12-08T10:46:56.266Z,23.57
2018-12-08T10:49:34.158Z,24.27
2018-12-08T10:52:03.933Z,22.10
2018-12-08T10:54:37.410Z,25.07
2018-12-08T10:57:05.400Z,26.57
2018-12-08T10:59:52.097Z,25.23
2018-12-08T11:02:32.914Z,17.17
2018-12-08T11:05:03.680Z,19.10
2018-12-08T11:07:33.749Z,26.67
2018-12-08T11:10:04.506Z,23.47
2018-12-08T11:12:33.952Z,18.73
2018-12-08T11:15:05.606Z,20.33
2018-12-08T11:17:37.199Z,21.63
2018-12-08T11:20:11.349Z,22.50
2018-12-08T11:22:39.960Z,26.07
2018-12-08T11:25:10.011Z,26.27
2018-12-08T11:27:41.936Z,20.07
2018-12-08T11:30:10.771Z,23.73
2018-12-08T11:32:42.104Z,24.60
2018-12-08T11:35:11.572Z,20.90
2018-12-08T11:37:41.400Z,24.03
2018-12-08T11:40:11.815Z,23.00
2018-12-08T11:42:41.630Z,25.67
2018-12-08T11:45:20.937Z,17.30
2018-12-08T11:47:51.681Z,21.83
2018-12-08T11:50:23.838Z,25.13
2018-12-08T11:52:51.999Z,24.77
2018-12-08T11:55:29.913Z,27.67
2018-12-08T11:57:51.954Z,22.23
2018-12-08T12:00:22.679Z,17.87
2018-12-08T12:02:50.858Z,26.13
2018-12-08T12:05:21.019Z,20.10
2018-12-08T12:07:50.103Z,26.90
2018-12-08T12:10:21.900Z,21.27
2018-12-08T12:12:52.267Z,25.17
2018-12-08T12:15:21.829Z,18.60
2018-12-08T12:17:53.269Z,18.47
2018-12-08T12:20:22.830Z,24.20
2018-12-08T12:22:52.893Z,18.60
2018-12-08T12:25:29.222Z,20.80
2018-12-08T12:28:01.240Z,16.50
2018-12-08T12:30:30.871Z,17.00
2018-12-08T12:33:00.328Z,14.77
2018-12-08T12:35:28.847Z,16.53
2018-12-08T12:38:00.298Z,15.37
2018-12-08T12:40:31.397Z,13.37
2018-12-08T12:43:00.790Z,10.30
2018-12-08T12:45:32.699Z,12.07
2018-12-08T12:48:06.600Z,6.83
2018-12-08T12:50:37.445Z,11.10
2018-12-08T12:53:11.209Z,11.57
2018-12-08T12:55:44.251Z,11.13
2018-12-08T12:58:15.257Z,9.30
2018-12-08T13:00:47.196Z,7.63
2018-12-08T13:03:17.716Z,10.33
2018-12-08T13:05:49.600Z,8.97
2018-12-08T13:08:19.752Z,9.40
2018-12-08T13:10:49.910Z,11.37
2018-12-08T13:13:17.913Z,10.77
2018-12-08T13:15:51.974Z,10.83
2018-12-08T13:18:23.471Z,11.00
2018-12-08T13:20:56.381Z,10.40
2018-12-08T13:23:27.190Z,13.47
2018-12-08T13:25:56.604Z,10.70
2018-12-08T13:28:25.167Z,8.53
2018-12-08T13:30:53.717Z,13.37
2018-12-08T13:33:23.634Z,11.90
2018-12-08T13:35:56.919Z,9.13
2018-12-08T13:38:26.632Z,9.80
2018-12-08T13:40:56.900Z,13.93
2018-12-08T13:43:26.931Z,11.53
2018-12-08T13:46:03.846Z,10.93
2018-12-08T13:48:33.608Z,10.50
2018-12-08T13:51:02.342Z,10.37
2018-12-08T13:53:36.848Z,9.37
2018-12-08T13:56:09.333Z,10.03
2018-12-08T13:58:37.489Z,9.07
2018-12-08T14:01:05.652Z,7.63
2018-12-08T14:03:34.328Z,11.03
2018-12-08T14:06:07.913Z,8.23
2018-12-08T14:08:36.597Z,12.67
2018-12-08T14:11:05.746Z,10.23
2018-12-08T14:13:35.002Z,44.73
2018-12-08T14:16:03.797Z,40.80
2018-12-08T14:18:32.413Z,10.97
2018-12-08T14:21:04.933Z,28.03
2018-12-08T14:23:35.625Z,15.03
2018-12-08T14:26:24.937Z,12.40
2018-12-08T14:28:53.665Z,11.83
2018-12-08T14:31:23.957Z,12.90
2018-12-08T14:33:52.125Z,13.47
2018-12-08T14:36:21.539Z,13.80
2018-12-08T14:40:32.472Z,15.80
2018-12-08T14:43:03.254Z,19.27
2018-12-08T14:45:39.904Z,12.40
2018-12-08T14:48:09.147Z,10.07
2018-12-08T14:50:40.831Z,10.03
2018-12-08T14:53:09.744Z,10.63
2018-12-08T14:55:38.713Z,10.33
2018-12-08T14:58:09.927Z,8.37
2018-12-08T15:00:39.806Z,8.90
2018-12-08T15:03:09.513Z,9.53
2018-12-08T15:05:37.574Z,9.33
2018-12-08T15:08:06.698Z,10.13
2018-12-08T15:10:36.064Z,5.67
2018-12-08T15:13:04.982Z,17.47
2018-12-08T15:15:35.940Z,19.30
2018-12-08T15:18:05.729Z,14.57
2018-12-08T15:20:52.901Z,18.90
2018-12-08T15:23:24.516Z,18.87
2018-12-08T15:25:56.201Z,19.63
2018-12-08T15:28:26.087Z,27.80
2018-12-08T15:30:54.828Z,19.67
2018-12-08T15:33:23.843Z,13.80
2018-12-08T15:35:53.409Z,12.07
2018-12-08T15:38:23.491Z,10.83
2018-12-08T15:40:51.946Z,12.77
2018-12-08T15:43:21.540Z,20.00
2018-12-08T15:45:50.552Z,15.20
2018-12-08T15:48:20.282Z,23.33
2018-12-08T15:50:50.351Z,14.47
2018-12-08T15:53:23.208Z,12.27
2018-12-08T15:56:55.854Z,10.70
2018-12-08T15:59:26.356Z,9.67
2018-12-08T16:01:58.012Z,11.37
2018-12-08T16:04:28.539Z,9.27
2018-12-08T16:06:56.703Z,4.57
2018-12-08T16:09:27.324Z,6.50
2018-12-08T16:11:56.483Z,5.67
2018-12-08T16:14:25.571Z,5.60
2018-12-08T16:16:55.901Z,6.17
2018-12-08T16:19:26.469Z,5.13
2018-12-08T16:22:04.076Z,8.50
2018-12-08T16:24:36.773Z,8.33
2018-12-08T16:27:07.800Z,9.83
2018-12-08T16:29:36.568Z,7.93
2018-12-08T16:32:06.370Z,5.30
2018-12-08T16:34:35.319Z,10.00
2018-12-08T16:37:05.545Z,6.43
2018-12-08T16:39:34.379Z,5.67
2018-12-08T16:42:02.627Z,7.23
2018-12-08T16:44:31.637Z,6.30
2018-12-08T16:47:01.912Z,9.27
2018-12-08T16:49:33.989Z,13.43
2018-12-08T16:52:05.212Z,5.27
2018-12-08T16:54:37.930Z,7.07
2018-12-08T16:57:08.072Z,6.50
2018-12-08T16:59:38.073Z,7.90
2018-12-08T17:02:09.736Z,9.50
2018-12-08T17:04:37.788Z,8.93
2018-12-08T17:07:08.949Z,6.57
2018-12-08T17:09:37.998Z,9.83
2018-12-08T17:12:08.964Z,6.07
2018-12-08T17:14:47.983Z,9.80
2018-12-08T17:17:26.147Z,8.90
2018-12-08T17:19:59.036Z,11.97
2018-12-08T17:22:35.715Z,13.50
2018-12-08T17:25:06.581Z,11.97
2018-12-08T17:27:42.790Z,11.63
2018-12-08T17:30:13.391Z,16.63
2018-12-08T17:32:45.751Z,17.07
2018-12-08T17:35:14.679Z,14.27
2018-12-08T17:37:46.052Z,14.10
2018-12-08T17:40:14.956Z,13.90
2018-12-08T17:42:44.890Z,18.57
2018-12-08T17:45:14.031Z,21.83
2018-12-08T17:47:43.570Z,17.93
2018-12-08T17:50:14.731Z,18.50
2018-12-08T17:52:43.540Z,22.90
2018-12-08T17:55:13.558Z,27.27
2018-12-08T17:57:44.491Z,23.97
2018-12-08T18:00:13.797Z,25.33
2018-12-08T18:02:41.850Z,27.50
2018-12-08T18:05:12.756Z,30.70
2018-12-08T18:07:44.756Z,26.27
2018-12-08T18:10:16.250Z,29.83
2018-12-08T18:12:47.963Z,30.30
2018-12-08T18:15:19.277Z,25.60
2018-12-08T18:17:47.950Z,26.17
2018-12-08T18:20:21.594Z,32.67
2018-12-08T18:22:53.450Z,28.43
2018-12-08T18:25:22.900Z,30.33
2018-12-08T18:27:52.885Z,30.10
2018-12-08T18:30:21.429Z,27.47
2018-12-08T18:32:56.115Z,32.80
2018-12-08T18:35:26.880Z,29.40
2018-12-08T18:38:01.320Z,29.43
2018-12-08T18:40:35.340Z,32.27
2018-12-08T18:43:04.911Z,28.27
2018-12-08T18:45:34.326Z,31.93
2018-12-08T18:48:03.277Z,31.33
2018-12-08T18:50:36.384Z,35.23
2018-12-08T18:53:09.254Z,30.50
2018-12-08T18:55:40.061Z,31.23
2018-12-08T18:58:11.040Z,32.50
2018-12-08T19:00:43.629Z,31.17
2018-12-08T19:03:14.529Z,35.97
2018-12-08T19:05:43.342Z,33.23
2018-12-08T19:08:15.089Z,29.90
2018-12-08T19:10:47.449Z,35.63
2018-12-08T19:13:19.944Z,36.47
2018-12-08T19:15:49.460Z,36.07
2018-12-08T19:18:23.535Z,31.40
2018-12-08T19:20:54.126Z,32.43
2018-12-08T19:23:26.842Z,32.30
2018-12-08T19:25:55.585Z,31.97
2018-12-08T19:28:27.616Z,33.67
2018-12-08T19:30:59.487Z,33.93
2018-12-08T19:33:28.725Z,29.00
2018-12-08T19:35:59.500Z,37.47
2018-12-08T19:38:35.944Z,28.40
2018-12-08T19:41:10.827Z,35.83
2018-12-08T19:43:42.953Z,37.00
2018-12-08T19:46:17.005Z,35.43
2018-12-08T19:48:48.028Z,38.10
2018-12-08T19:51:17.534Z,33.33
2018-12-08T19:53:50.050Z,38.10
2018-12-08T19:56:30.373Z,35.57
2018-12-08T19:59:00.310Z,36.77
2018-12-08T20:01:29.250Z,34.27
2018-12-08T20:03:59.264Z,33.23
2018-12-08T20:06:31.384Z,35.50
2018-12-08T20:09:03.908Z,38.17
2018-12-08T20:11:36.472Z,32.73
2018-12-08T20:14:08.736Z,35.83
2018-12-08T20:16:40.973Z,36.17
2018-12-08T20:19:12.023Z,34.63
2018-12-08T20:21:43.988Z,36.97
2018-12-08T20:24:15.893Z,35.33
2018-12-08T20:26:49.032Z,33.10
2018-12-08T20:29:18.288Z,38.47
2018-12-08T20:31:51.107Z,35.07
2018-12-08T20:34:22.431Z,37.93
2018-12-08T20:36:52.515Z,42.93
2018-12-08T20:39:24.322Z,33.43
2018-12-08T20:41:59.021Z,33.93
2018-12-08T20:44:29.705Z,40.23
2018-12-08T20:47:00.029Z,35.77
2018-12-08T20:49:31.760Z,38.23
2018-12-08T20:52:03.970Z,38.20
2018-12-08T20:54:34.855Z,39.37
2018-12-08T20:57:05.952Z,36.13
2018-12-08T20:59:43.851Z,36.00
2018-12-08T21:02:21.711Z,38.10
2018-12-08T21:04:55.128Z,33.30
2018-12-08T21:07:28.616Z,39.97
2018-12-08T21:09:59.327Z,36.73
2018-12-08T21:12:33.720Z,40.57
2018-12-08T21:15:06.540Z,42.10
2018-12-08T21:17:42.100Z,41.70
2018-12-08T21:20:13.733Z,38.10
2018-12-08T21:22:44.540Z,48.10
2018-12-08T21:25:22.959Z,36.60
2018-12-08T21:27:53.539Z,44.30
2018-12-08T21:30:25.078Z,40.90
2018-12-08T21:32:58.634Z,44.10
2018-12-08T21:35:28.181Z,39.93
2018-12-08T21:38:02.418Z,37.80
2018-12-08T21:40:33.034Z,43.63
2018-12-08T21:43:04.107Z,40.37
2018-12-08T21:45:35.145Z,37.83
2018-12-08T21:48:06.775Z,43.17
2018-12-08T21:50:36.953Z,41.33
2018-12-08T21:53:07.018Z,37.50
2018-12-08T21:55:38.529Z,42.43
2018-12-08T21:58:10.193Z,44.63
2018-12-08T22:00:39.584Z,45.20
2018-12-08T22:03:12.348Z,42.60
2018-12-08T22:05:41.337Z,46.40
2018-12-08T22:08:11.745Z,39.83
2018-12-08T22:10:40.693Z,48.07
2018-12-08T22:13:13.223Z,46.73
2018-12-08T22:15:47.795Z,44.70
2018-12-08T22:18:21.499Z,49.00
2018-12-08T22:20:50.797Z,45.30
2018-12-08T22:23:19.894Z,43.40
2018-12-08T22:25:51.600Z,40.63
2018-12-08T22:28:21.348Z,45.90
2018-12-08T22:30:52.834Z,47.37
2018-12-08T22:33:23.047Z,44.30
2018-12-08T22:35:54.130Z,40.10
2018-12-08T22:38:29.051Z,45.97
2018-12-08T22:41:01.413Z,41.20
2018-12-08T22:43:31.137Z,42.20
2018-12-08T22:46:00.128Z,46.47
2018-12-08T22:48:30.656Z,47.13
2018-12-08T22:51:00.698Z,43.60
2018-12-08T22:53:33.271Z,44.27
2018-12-08T22:56:04.261Z,44.57
2018-12-08T22:58:41.709Z,50.60
2018-12-08T23:01:15.889Z,48.57
2018-12-08T23:03:44.938Z,52.87
2018-12-08T23:06:19.134Z,51.67
2018-12-08T23:08:48.408Z,54.83
2018-12-08T23:11:19.291Z,59.73
2018-12-08T23:13:48.112Z,49.07
2018-12-08T23:16:16.060Z,49.40
2018-12-08T23:18:43.883Z,56.23
2018-12-08T23:21:13.131Z,44.03
2018-12-08T23:23:41.346Z,55.60
2018-12-08T23:26:10.795Z,50.10
2018-12-08T23:28:43.833Z,59.73
2018-12-08T23:31:13.815Z,44.67
2018-12-08T23:33:43.642Z,39.57
2018-12-08T23:36:17.832Z,45.03
2018-12-08T23:38:48.231Z,36.47
2018-12-08T23:41:17.340Z,43.63
2018-12-08T23:43:46.052Z,44.87
2018-12-08T23:46:14.783Z,40.93
2018-12-08T23:48:45.965Z,34.77
2018-12-08T23:51:14.250Z,38.10
2018-12-08T23:53:43.756Z,41.87
2018-12-08T23:56:16.281Z,34.53
2018-12-08T23:58:45.259Z,39.30
